sensor_id;sensor_type;location;lat;lon;timestamp;temperature;humidity
59881;DHT22;45751;51.380;10.326;2023-04-09T00:00:41;7.20;97.20
59881;DHT22;45751;51.380;10.326;2023-04-09T00:03:08;7.30;96.70
59881;DHT22;45751;51.380;10.326;2023-04-09T00:05:39;7.20;96.70
59881;DHT22;45751;51.380;10.326;2023-04-09T00:08:06;7.20;96.70
59881;DHT22;45751;51.380;10.326;2023-04-09T00:10:33;7.20;97.30
59881;DHT22;45751;51.380;10.326;2023-04-09T00:13:00;7.20;97.00
59881;DHT22;45751;51.380;10.326;2023-04-09T00:15:27;7.20;97.10
59881;DHT22;45751;51.380;10.326;2023-04-09T00:17:58;7.20;97.40
59881;DHT22;45751;51.380;10.326;2023-04-09T00:20:25;7.20;97.50
59881;DHT22;45751;51.380;10.326;2023-04-09T00:22:52;7.20;97.50
59881;DHT22;45751;51.380;10.326;2023-04-09T00:25:19;7.20;97.60
59881;DHT22;45751;51.380;10.326;2023-04-09T00:27:46;7.10;97.70
59881;DHT22;45751;51.380;10.326;2023-04-09T00:30:13;7.20;97.80
59881;DHT22;45751;51.380;10.326;2023-04-09T00:32:40;7.20;97.90
59881;DHT22;45751;51.380;10.326;2023-04-09T00:35:08;7.20;98.10
59881;DHT22;45751;51.380;10.326;2023-04-09T00:37:35;7.10;98.20
59881;DHT22;45751;51.380;10.326;2023-04-09T00:40:02;7.10;98.20
59881;DHT22;45751;51.380;10.326;2023-04-09T00:42:33;7.10;98.30
59881;DHT22;45751;51.380;10.326;2023-04-09T00:45:01;7.10;98.50
59881;DHT22;45751;51.380;10.326;2023-04-09T00:47:29;7.10;98.60
59881;DHT22;45751;51.380;10.326;2023-04-09T00:49:57;7.20;98.70
59881;DHT22;45751;51.380;10.326;2023-04-09T00:52:24;7.10;98.70
59881;DHT22;45751;51.380;10.326;2023-04-09T00:54:52;7.10;98.70
59881;DHT22;45751;51.380;10.326;2023-04-09T00:57:19;7.10;98.90
59881;DHT22;45751;51.380;10.326;2023-04-09T00:59:46;7.10;99.00
59881;DHT22;45751;51.380;10.326;2023-04-09T01:02:13;7.00;99.00
59881;DHT22;45751;51.380;10.326;2023-04-09T01:04:41;7.00;99.10
59881;DHT22;45751;51.380;10.326;2023-04-09T01:10:13;7.00;99.30
59881;DHT22;45751;51.380;10.326;2023-04-09T01:13:06;7.00;99.30
59881;DHT22;45751;51.380;10.326;2023-04-09T01:15:38;7.00;99.40
59881;DHT22;45751;51.380;10.326;2023-04-09T01:21:13;7.00;99.60
59881;DHT22;45751;51.380;10.326;2023-04-09T01:27:01;7.00;99.50
59881;DHT22;45751;51.380;10.326;2023-04-09T01:29:46;7.00;99.60
59881;DHT22;45751;51.380;10.326;2023-04-09T01:32:16;7.00;99.70
59881;DHT22;45751;51.380;10.326;2023-04-09T01:34:45;7.00;99.70
59881;DHT22;45751;51.380;10.326;2023-04-09T01:37:14;7.00;99.70
59881;DHT22;45751;51.380;10.326;2023-04-09T01:39:43;6.90;99.70
59881;DHT22;45751;51.380;10.326;2023-04-09T01:42:11;7.00;99.80
59881;DHT22;45751;51.380;10.326;2023-04-09T01:44:39;6.90;99.90
59881;DHT22;45751;51.380;10.326;2023-04-09T01:47:08;6.90;99.90
59881;DHT22;45751;51.380;10.326;2023-04-09T01:49:37;6.90;99.90
59881;DHT22;45751;51.380;10.326;2023-04-09T01:52:06;6.90;99.90
59881;DHT22;45751;51.380;10.326;2023-04-09T01:54:33;6.90;99.90
59881;DHT22;45751;51.380;10.326;2023-04-09T01:56:59;6.90;99.90
59881;DHT22;45751;51.380;10.326;2023-04-09T01:59:26;6.90;99.90
59881;DHT22;45751;51.380;10.326;2023-04-09T02:01:58;6.90;99.90
59881;DHT22;45751;51.380;10.326;2023-04-09T02:07:04;6.90;99.90
59881;DHT22;45751;51.380;10.326;2023-04-09T02:09:34;6.80;99.90
59881;DHT22;45751;51.380;10.326;2023-04-09T02:12:05;6.90;99.90
59881;DHT22;45751;51.380;10.326;2023-04-09T02:14:32;6.90;99.90
59881;DHT22;45751;51.380;10.326;2023-04-09T02:17:00;6.90;99.90
59881;DHT22;45751;51.380;10.326;2023-04-09T02:19:41;6.80;99.90
59881;DHT22;45751;51.380;10.326;2023-04-09T02:22:09;6.80;99.90
59881;DHT22;45751;51.380;10.326;2023-04-09T02:24:36;6.80;99.90
59881;DHT22;45751;51.380;10.326;2023-04-09T02:27:04;6.80;99.90
59881;DHT22;45751;51.380;10.326;2023-04-09T02:29:32;6.80;99.90
59881;DHT22;45751;51.380;10.326;2023-04-09T02:31:59;6.80;99.90
59881;DHT22;45751;51.380;10.326;2023-04-09T02:34:26;6.80;99.90
59881;DHT22;45751;51.380;10.326;2023-04-09T02:36:54;6.80;99.90
59881;DHT22;45751;51.380;10.326;2023-04-09T02:39:21;6.80;99.90
59881;DHT22;45751;51.380;10.326;2023-04-09T02:41:47;6.80;99.90
59881;DHT22;45751;51.380;10.326;2023-04-09T02:44:14;6.80;99.90
59881;DHT22;45751;51.380;10.326;2023-04-09T02:46:43;6.80;99.90
59881;DHT22;45751;51.380;10.326;2023-04-09T02:49:10;6.80;99.90
59881;DHT22;45751;51.380;10.326;2023-04-09T02:51:37;6.80;99.90
59881;DHT22;45751;51.380;10.326;2023-04-09T02:54:04;6.80;99.90
59881;DHT22;45751;51.380;10.326;2023-04-09T02:56:31;6.80;99.90
59881;DHT22;45751;51.380;10.326;2023-04-09T02:58:58;6.80;99.90
59881;DHT22;45751;51.380;10.326;2023-04-09T03:01:25;6.80;99.90
59881;DHT22;45751;51.380;10.326;2023-04-09T03:03:52;6.80;99.90
59881;DHT22;45751;51.380;10.326;2023-04-09T03:06:19;6.90;99.90
59881;DHT22;45751;51.380;10.326;2023-04-09T03:08:46;6.80;99.90
59881;DHT22;45751;51.380;10.326;2023-04-09T03:11:13;6.80;99.90
59881;DHT22;45751;51.380;10.326;2023-04-09T03:13:40;6.80;99.90
59881;DHT22;45751;51.380;10.326;2023-04-09T03:16:07;6.80;99.90
59881;DHT22;45751;51.380;10.326;2023-04-09T03:18:36;6.80;99.90
59881;DHT22;45751;51.380;10.326;2023-04-09T03:21:07;6.80;99.90
59881;DHT22;45751;51.380;10.326;2023-04-09T03:23:37;6.80;99.90
59881;DHT22;45751;51.380;10.326;2023-04-09T03:26:06;6.80;99.90
59881;DHT22;45751;51.380;10.326;2023-04-09T03:28:41;6.80;99.90
59881;DHT22;45751;51.380;10.326;2023-04-09T03:31:07;6.80;99.90
59881;DHT22;45751;51.380;10.326;2023-04-09T03:33:36;6.80;99.90
59881;DHT22;45751;51.380;10.326;2023-04-09T03:36:03;6.80;99.90
59881;DHT22;45751;51.380;10.326;2023-04-09T03:38:59;6.80;99.90
59881;DHT22;45751;51.380;10.326;2023-04-09T03:41:36;6.80;99.90
59881;DHT22;45751;51.380;10.326;2023-04-09T03:44:07;6.80;99.90
59881;DHT22;45751;51.380;10.326;2023-04-09T03:46:44;6.70;99.90
59881;DHT22;45751;51.380;10.326;2023-04-09T03:49:15;6.80;99.90
59881;DHT22;45751;51.380;10.326;2023-04-09T03:51:43;6.80;99.90
59881;DHT22;45751;51.380;10.326;2023-04-09T03:54:11;6.80;99.90
59881;DHT22;45751;51.380;10.326;2023-04-09T03:56:39;6.80;99.90
59881;DHT22;45751;51.380;10.326;2023-04-09T03:59:10;6.70;99.90
59881;DHT22;45751;51.380;10.326;2023-04-09T04:01:39;6.70;99.90
59881;DHT22;45751;51.380;10.326;2023-04-09T04:04:07;6.80;99.90
59881;DHT22;45751;51.380;10.326;2023-04-09T04:06:40;6.70;99.90
59881;DHT22;45751;51.380;10.326;2023-04-09T04:09:19;6.80;99.90
59881;DHT22;45751;51.380;10.326;2023-04-09T04:12:12;6.60;99.90
59881;DHT22;45751;51.380;10.326;2023-04-09T04:15:00;6.70;99.90
59881;DHT22;45751;51.380;10.326;2023-04-09T04:17:36;6.70;99.90
59881;DHT22;45751;51.380;10.326;2023-04-09T04:20:09;6.70;99.90
59881;DHT22;45751;51.380;10.326;2023-04-09T04:22:48;6.70;99.90
59881;DHT22;45751;51.380;10.326;2023-04-09T04:25:16;6.70;99.90
59881;DHT22;45751;51.380;10.326;2023-04-09T04:27:44;6.70;99.90
59881;DHT22;45751;51.380;10.326;2023-04-09T04:30:12;6.70;99.90
59881;DHT22;45751;51.380;10.326;2023-04-09T04:32:54;6.70;99.90
59881;DHT22;45751;51.380;10.326;2023-04-09T04:35:21;6.70;99.90
59881;DHT22;45751;51.380;10.326;2023-04-09T04:37:52;6.60;99.90
59881;DHT22;45751;51.380;10.326;2023-04-09T04:40:20;6.60;99.90
59881;DHT22;45751;51.380;10.326;2023-04-09T04:42:53;6.60;99.90
59881;DHT22;45751;51.380;10.326;2023-04-09T04:45:20;6.60;99.90
59881;DHT22;45751;51.380;10.326;2023-04-09T04:47:50;6.60;99.90
59881;DHT22;45751;51.380;10.326;2023-04-09T04:50:17;6.60;99.90
59881;DHT22;45751;51.380;10.326;2023-04-09T04:52:53;6.60;99.90
59881;DHT22;45751;51.380;10.326;2023-04-09T04:55:23;6.60;99.90
59881;DHT22;45751;51.380;10.326;2023-04-09T04:57:51;6.60;99.90
59881;DHT22;45751;51.380;10.326;2023-04-09T05:00:21;6.60;99.90
59881;DHT22;45751;51.380;10.326;2023-04-09T05:02:49;6.60;99.90
59881;DHT22;45751;51.380;10.326;2023-04-09T05:05:32;6.70;99.90
59881;DHT22;45751;51.380;10.326;2023-04-09T05:07:59;6.60;99.90
59881;DHT22;45751;51.380;10.326;2023-04-09T05:10:26;6.60;99.90
59881;DHT22;45751;51.380;10.326;2023-04-09T05:12:55;6.60;99.90
59881;DHT22;45751;51.380;10.326;2023-04-09T05:15:29;6.60;99.90
59881;DHT22;45751;51.380;10.326;2023-04-09T05:17:57;6.60;99.90
59881;DHT22;45751;51.380;10.326;2023-04-09T05:20:26;6.60;99.90
59881;DHT22;45751;51.380;10.326;2023-04-09T05:23:04;6.60;99.90
59881;DHT22;45751;51.380;10.326;2023-04-09T05:25:37;6.60;99.90
59881;DHT22;45751;51.380;10.326;2023-04-09T05:28:07;6.60;99.90
59881;DHT22;45751;51.380;10.326;2023-04-09T05:30:34;6.60;99.90
59881;DHT22;45751;51.380;10.326;2023-04-09T05:33:03;6.60;99.90
59881;DHT22;45751;51.380;10.326;2023-04-09T05:35:31;6.60;99.90
59881;DHT22;45751;51.380;10.326;2023-04-09T05:37:58;6.60;99.90
59881;DHT22;45751;51.380;10.326;2023-04-09T05:40:26;6.60;99.90
59881;DHT22;45751;51.380;10.326;2023-04-09T05:42:53;6.60;99.90
59881;DHT22;45751;51.380;10.326;2023-04-09T05:45:27;6.60;99.90
59881;DHT22;45751;51.380;10.326;2023-04-09T05:47:54;6.60;99.90
59881;DHT22;45751;51.380;10.326;2023-04-09T05:50:22;6.70;99.90
59881;DHT22;45751;51.380;10.326;2023-04-09T05:52:52;6.70;99.90
59881;DHT22;45751;51.380;10.326;2023-04-09T05:55:20;6.70;99.90
59881;DHT22;45751;51.380;10.326;2023-04-09T05:57:55;6.80;99.90
59881;DHT22;45751;51.380;10.326;2023-04-09T06:00:22;6.70;99.90
59881;DHT22;45751;51.380;10.326;2023-04-09T06:02:50;6.80;99.90
59881;DHT22;45751;51.380;10.326;2023-04-09T06:05:17;6.70;99.90
59881;DHT22;45751;51.380;10.326;2023-04-09T06:07:46;6.80;99.90
59881;DHT22;45751;51.380;10.326;2023-04-09T06:10:13;6.80;99.90
59881;DHT22;45751;51.380;10.326;2023-04-09T06:12:40;6.90;99.90
59881;DHT22;45751;51.380;10.326;2023-04-09T06:15:08;6.80;99.90
59881;DHT22;45751;51.380;10.326;2023-04-09T06:17:35;6.90;99.90
59881;DHT22;45751;51.380;10.326;2023-04-09T06:20:02;7.00;99.90
59881;DHT22;45751;51.380;10.326;2023-04-09T06:22:29;6.90;99.90
59881;DHT22;45751;51.380;10.326;2023-04-09T06:24:56;6.90;99.90
59881;DHT22;45751;51.380;10.326;2023-04-09T06:27:23;6.90;99.90
59881;DHT22;45751;51.380;10.326;2023-04-09T06:29:50;7.00;99.90
59881;DHT22;45751;51.380;10.326;2023-04-09T06:32:17;7.00;99.90
59881;DHT22;45751;51.380;10.326;2023-04-09T06:34:44;7.00;99.90
59881;DHT22;45751;51.380;10.326;2023-04-09T06:37:11;7.10;99.90
59881;DHT22;45751;51.380;10.326;2023-04-09T06:39:38;7.10;99.90
59881;DHT22;45751;51.380;10.326;2023-04-09T06:42:35;7.10;99.90
59881;DHT22;45751;51.380;10.326;2023-04-09T06:45:10;7.10;99.90
59881;DHT22;45751;51.380;10.326;2023-04-09T06:47:38;7.20;99.90
59881;DHT22;45751;51.380;10.326;2023-04-09T06:50:08;7.20;99.90
59881;DHT22;45751;51.380;10.326;2023-04-09T06:52:35;7.20;99.90
59881;DHT22;45751;51.380;10.326;2023-04-09T06:55:02;7.20;99.90
59881;DHT22;45751;51.380;10.326;2023-04-09T06:57:29;7.30;99.90
59881;DHT22;45751;51.380;10.326;2023-04-09T06:59:56;7.30;99.90
59881;DHT22;45751;51.380;10.326;2023-04-09T07:02:23;7.30;99.90
59881;DHT22;45751;51.380;10.326;2023-04-09T07:04:50;7.30;99.90
59881;DHT22;45751;51.380;10.326;2023-04-09T07:07:17;7.40;99.90
59881;DHT22;45751;51.380;10.326;2023-04-09T07:09:47;7.40;99.90
59881;DHT22;45751;51.380;10.326;2023-04-09T07:12:24;7.40;99.90
59881;DHT22;45751;51.380;10.326;2023-04-09T07:14:51;7.40;99.90
59881;DHT22;45751;51.380;10.326;2023-04-09T07:17:18;7.50;99.90
59881;DHT22;45751;51.380;10.326;2023-04-09T07:19:45;7.60;99.90
59881;DHT22;45751;51.380;10.326;2023-04-09T07:22:12;7.60;99.90
59881;DHT22;45751;51.380;10.326;2023-04-09T07:24:38;7.60;99.60
59881;DHT22;45751;51.380;10.326;2023-04-09T07:27:06;7.60;99.00
59881;DHT22;45751;51.380;10.326;2023-04-09T07:29:32;7.60;98.90
59881;DHT22;45751;51.380;10.326;2023-04-09T07:31:59;7.70;98.80
59881;DHT22;45751;51.380;10.326;2023-04-09T07:34:28;7.60;98.40
59881;DHT22;45751;51.380;10.326;2023-04-09T07:36:55;7.70;98.00
59881;DHT22;45751;51.380;10.326;2023-04-09T07:39:22;7.70;97.80
59881;DHT22;45751;51.380;10.326;2023-04-09T07:41:49;7.70;97.60
59881;DHT22;45751;51.380;10.326;2023-04-09T07:44:16;7.80;97.80
59881;DHT22;45751;51.380;10.326;2023-04-09T07:46:43;7.80;97.90
59881;DHT22;45751;51.380;10.326;2023-04-09T07:49:10;7.90;98.00
59881;DHT22;45751;51.380;10.326;2023-04-09T07:51:37;7.90;97.80
59881;DHT22;45751;51.380;10.326;2023-04-09T07:54:04;7.90;97.50
59881;DHT22;45751;51.380;10.326;2023-04-09T07:56:31;7.90;96.70
59881;DHT22;45751;51.380;10.326;2023-04-09T07:58:58;8.00;95.90
59881;DHT22;45751;51.380;10.326;2023-04-09T08:01:25;8.00;95.40
59881;DHT22;45751;51.380;10.326;2023-04-09T08:03:52;8.10;95.20
59881;DHT22;45751;51.380;10.326;2023-04-09T08:06:19;8.10;94.80
59881;DHT22;45751;51.380;10.326;2023-04-09T08:08:46;8.10;94.80
59881;DHT22;45751;51.380;10.326;2023-04-09T08:11:12;8.20;94.30
59881;DHT22;45751;51.380;10.326;2023-04-09T08:13:39;8.30;93.80
59881;DHT22;45751;51.380;10.326;2023-04-09T08:16:06;8.30;94.00
59881;DHT22;45751;51.380;10.326;2023-04-09T08:18:33;8.40;94.10
59881;DHT22;45751;51.380;10.326;2023-04-09T08:21:03;8.50;92.80
59881;DHT22;45751;51.380;10.326;2023-04-09T08:23:30;8.60;92.20
59881;DHT22;45751;51.380;10.326;2023-04-09T08:25:57;8.60;92.10
59881;DHT22;45751;51.380;10.326;2023-04-09T08:28:24;8.60;91.60
59881;DHT22;45751;51.380;10.326;2023-04-09T08:30:51;8.70;91.30
59881;DHT22;45751;51.380;10.326;2023-04-09T08:33:18;8.70;91.00
59881;DHT22;45751;51.380;10.326;2023-04-09T08:35:45;8.70;90.80
59881;DHT22;45751;51.380;10.326;2023-04-09T08:38:12;8.70;90.80
59881;DHT22;45751;51.380;10.326;2023-04-09T08:40:39;8.70;90.80
59881;DHT22;45751;51.380;10.326;2023-04-09T08:43:07;8.70;90.60
59881;DHT22;45751;51.380;10.326;2023-04-09T08:45:34;8.70;90.20
59881;DHT22;45751;51.380;10.326;2023-04-09T08:48:02;8.60;90.00
59881;DHT22;45751;51.380;10.326;2023-04-09T08:50:33;8.60;89.90
59881;DHT22;45751;51.380;10.326;2023-04-09T08:53:02;8.50;89.30
59881;DHT22;45751;51.380;10.326;2023-04-09T08:55:31;8.40;89.10
59881;DHT22;45751;51.380;10.326;2023-04-09T08:58:03;8.40;89.00
59881;DHT22;45751;51.380;10.326;2023-04-09T09:00:31;8.30;89.60
59881;DHT22;45751;51.380;10.326;2023-04-09T09:03:03;8.30;90.30
59881;DHT22;45751;51.380;10.326;2023-04-09T09:05:38;8.30;90.00
59881;DHT22;45751;51.380;10.326;2023-04-09T09:08:11;8.20;89.30
59881;DHT22;45751;51.380;10.326;2023-04-09T09:10:43;8.20;89.30
59881;DHT22;45751;51.380;10.326;2023-04-09T09:13:23;8.20;89.70
59881;DHT22;45751;51.380;10.326;2023-04-09T09:16:10;8.20;89.30
59881;DHT22;45751;51.380;10.326;2023-04-09T09:18:42;8.20;89.40
59881;DHT22;45751;51.380;10.326;2023-04-09T09:21:14;8.20;89.70
59881;DHT22;45751;51.380;10.326;2023-04-09T09:23:42;8.30;90.10
59881;DHT22;45751;51.380;10.326;2023-04-09T09:26:23;8.50;90.40
59881;DHT22;45751;51.380;10.326;2023-04-09T09:28:51;8.40;90.00
59881;DHT22;45751;51.380;10.326;2023-04-09T09:31:20;8.50;89.30
59881;DHT22;45751;51.380;10.326;2023-04-09T09:33:48;8.60;88.40
59881;DHT22;45751;51.380;10.326;2023-04-09T09:36:30;8.60;88.20
59881;DHT22;45751;51.380;10.326;2023-04-09T09:38:58;8.70;87.10
59881;DHT22;45751;51.380;10.326;2023-04-09T09:41:27;8.70;87.40
59881;DHT22;45751;51.380;10.326;2023-04-09T09:43:54;8.80;86.80
59881;DHT22;45751;51.380;10.326;2023-04-09T09:46:24;8.90;85.60
59881;DHT22;45751;51.380;10.326;2023-04-09T09:48:52;8.90;85.50
59881;DHT22;45751;51.380;10.326;2023-04-09T09:51:24;9.00;83.80
59881;DHT22;45751;51.380;10.326;2023-04-09T09:53:56;9.00;82.40
59881;DHT22;45751;51.380;10.326;2023-04-09T09:56:28;9.00;82.10
59881;DHT22;45751;51.380;10.326;2023-04-09T09:59:06;9.00;83.40
59881;DHT22;45751;51.380;10.326;2023-04-09T10:01:36;9.10;83.90
59881;DHT22;45751;51.380;10.326;2023-04-09T10:04:05;9.20;82.20
59881;DHT22;45751;51.380;10.326;2023-04-09T10:06:34;9.30;81.50
59881;DHT22;45751;51.380;10.326;2023-04-09T10:09:04;9.30;80.40
59881;DHT22;45751;51.380;10.326;2023-04-09T10:11:34;9.40;80.00
59881;DHT22;45751;51.380;10.326;2023-04-09T10:14:03;9.50;80.60
59881;DHT22;45751;51.380;10.326;2023-04-09T10:16:31;9.60;79.10
59881;DHT22;45751;51.380;10.326;2023-04-09T10:19:00;9.70;77.40
59881;DHT22;45751;51.380;10.326;2023-04-09T10:21:56;9.80;76.20
59881;DHT22;45751;51.380;10.326;2023-04-09T10:24:24;9.80;75.90
59881;DHT22;45751;51.380;10.326;2023-04-09T10:26:56;9.90;73.60
59881;DHT22;45751;51.380;10.326;2023-04-09T10:29:27;9.90;71.20
59881;DHT22;45751;51.380;10.326;2023-04-09T10:32:05;10.00;70.10
59881;DHT22;45751;51.380;10.326;2023-04-09T10:34:41;10.00;67.90
59881;DHT22;45751;51.380;10.326;2023-04-09T10:37:13;10.00;68.70
59881;DHT22;45751;51.380;10.326;2023-04-09T10:39:43;10.00;68.80
59881;DHT22;45751;51.380;10.326;2023-04-09T10:42:12;10.10;66.20
59881;DHT22;45751;51.380;10.326;2023-04-09T10:44:39;10.10;65.60
59881;DHT22;45751;51.380;10.326;2023-04-09T10:47:10;10.10;66.00
59881;DHT22;45751;51.380;10.326;2023-04-09T10:49:39;10.10;66.00
59881;DHT22;45751;51.380;10.326;2023-04-09T10:52:10;10.10;65.10
59881;DHT22;45751;51.380;10.326;2023-04-09T10:54:43;10.10;63.70
59881;DHT22;45751;51.380;10.326;2023-04-09T10:57:15;10.10;64.70
59881;DHT22;45751;51.380;10.326;2023-04-09T10:59:46;10.10;67.10
59881;DHT22;45751;51.380;10.326;2023-04-09T11:08:02;10.20;65.60
59881;DHT22;45751;51.380;10.326;2023-04-09T11:10:31;10.30;66.70
59881;DHT22;45751;51.380;10.326;2023-04-09T11:12:59;10.40;66.40
59881;DHT22;45751;51.380;10.326;2023-04-09T11:15:26;10.40;66.10
59881;DHT22;45751;51.380;10.326;2023-04-09T11:17:54;10.40;64.70
59881;DHT22;45751;51.380;10.326;2023-04-09T11:20:23;10.50;64.30
59881;DHT22;45751;51.380;10.326;2023-04-09T11:22:52;10.60;64.30
59881;DHT22;45751;51.380;10.326;2023-04-09T11:25:25;10.70;65.80
59881;DHT22;45751;51.380;10.326;2023-04-09T11:27:52;10.70;63.80
59881;DHT22;45751;51.380;10.326;2023-04-09T11:30:19;10.80;63.50
59881;DHT22;45751;51.380;10.326;2023-04-09T11:32:47;10.80;64.00
59881;DHT22;45751;51.380;10.326;2023-04-09T11:35:17;10.80;63.60
59881;DHT22;45751;51.380;10.326;2023-04-09T11:37:45;10.80;64.00
59881;DHT22;45751;51.380;10.326;2023-04-09T11:40:42;10.90;63.40
59881;DHT22;45751;51.380;10.326;2023-04-09T11:43:15;10.90;63.60
59881;DHT22;45751;51.380;10.326;2023-04-09T11:45:43;10.90;63.50
59881;DHT22;45751;51.380;10.326;2023-04-09T11:48:10;11.00;63.80
59881;DHT22;45751;51.380;10.326;2023-04-09T11:50:38;11.10;63.60
59881;DHT22;45751;51.380;10.326;2023-04-09T11:53:19;11.20;62.10
59881;DHT22;45751;51.380;10.326;2023-04-09T11:55:49;11.30;62.00
59881;DHT22;45751;51.380;10.326;2023-04-09T11:58:17;11.40;63.40
59881;DHT22;45751;51.380;10.326;2023-04-09T12:00:44;11.40;61.20
59881;DHT22;45751;51.380;10.326;2023-04-09T12:03:11;11.50;61.20
59881;DHT22;45751;51.380;10.326;2023-04-09T12:05:44;11.60;61.90
59881;DHT22;45751;51.380;10.326;2023-04-09T12:08:22;11.60;61.40
59881;DHT22;45751;51.380;10.326;2023-04-09T12:10:49;11.80;61.90
59881;DHT22;45751;51.380;10.326;2023-04-09T12:13:19;11.90;62.40
59881;DHT22;45751;51.380;10.326;2023-04-09T12:15:48;12.00;60.80
59881;DHT22;45751;51.380;10.326;2023-04-09T12:18:15;12.10;60.30
59881;DHT22;45751;51.380;10.326;2023-04-09T12:20:44;12.20;59.40
59881;DHT22;45751;51.380;10.326;2023-04-09T12:23:12;12.20;58.10
59881;DHT22;45751;51.380;10.326;2023-04-09T12:25:41;12.20;58.40
59881;DHT22;45751;51.380;10.326;2023-04-09T12:28:10;12.20;59.00
59881;DHT22;45751;51.380;10.326;2023-04-09T12:30:38;12.30;59.70
59881;DHT22;45751;51.380;10.326;2023-04-09T12:33:05;12.50;60.20
59881;DHT22;45751;51.380;10.326;2023-04-09T12:35:35;12.60;59.80
59881;DHT22;45751;51.380;10.326;2023-04-09T12:38:03;12.70;59.40
59881;DHT22;45751;51.380;10.326;2023-04-09T12:40:30;12.80;58.70
59881;DHT22;45751;51.380;10.326;2023-04-09T12:42:57;13.00;59.70
59881;DHT22;45751;51.380;10.326;2023-04-09T12:45:24;13.10;57.80
59881;DHT22;45751;51.380;10.326;2023-04-09T12:47:51;13.20;56.90
59881;DHT22;45751;51.380;10.326;2023-04-09T12:50:18;13.20;56.80
59881;DHT22;45751;51.380;10.326;2023-04-09T12:52:45;13.40;56.00
59881;DHT22;45751;51.380;10.326;2023-04-09T12:55:13;13.50;55.50
59881;DHT22;45751;51.380;10.326;2023-04-09T12:57:45;13.60;55.10
59881;DHT22;45751;51.380;10.326;2023-04-09T13:00:15;13.70;55.00
59881;DHT22;45751;51.380;10.326;2023-04-09T13:02:42;13.80;55.10
59881;DHT22;45751;51.380;10.326;2023-04-09T13:05:09;14.00;54.50
59881;DHT22;45751;51.380;10.326;2023-04-09T13:07:36;14.20;54.00
59881;DHT22;45751;51.380;10.326;2023-04-09T13:10:03;14.30;53.50
59881;DHT22;45751;51.380;10.326;2023-04-09T13:12:30;14.40;53.30
59881;DHT22;45751;51.380;10.326;2023-04-09T13:14:57;14.60;52.60
59881;DHT22;45751;51.380;10.326;2023-04-09T13:17:25;14.70;52.10
59881;DHT22;45751;51.380;10.326;2023-04-09T13:19:52;14.80;51.90
59881;DHT22;45751;51.380;10.326;2023-04-09T13:22:19;14.80;51.70
59881;DHT22;45751;51.380;10.326;2023-04-09T13:24:46;14.90;51.30
59881;DHT22;45751;51.380;10.326;2023-04-09T13:27:13;14.90;50.90
59881;DHT22;45751;51.380;10.326;2023-04-09T13:29:40;15.00;50.50
59881;DHT22;45751;51.380;10.326;2023-04-09T13:32:07;15.10;50.90
59881;DHT22;45751;51.380;10.326;2023-04-09T13:34:37;15.10;50.30
59881;DHT22;45751;51.380;10.326;2023-04-09T13:37:04;15.20;50.30
59881;DHT22;45751;51.380;10.326;2023-04-09T13:39:31;15.30;49.90
59881;DHT22;45751;51.380;10.326;2023-04-09T13:42:00;15.30;49.10
59881;DHT22;45751;51.380;10.326;2023-04-09T13:44:41;15.40;49.50
59881;DHT22;45751;51.380;10.326;2023-04-09T13:47:11;15.60;49.30
59881;DHT22;45751;51.380;10.326;2023-04-09T13:49:39;15.80;49.40
59881;DHT22;45751;51.380;10.326;2023-04-09T13:52:07;15.90;48.90
59881;DHT22;45751;51.380;10.326;2023-04-09T13:54:34;16.20;49.10
59881;DHT22;45751;51.380;10.326;2023-04-09T13:57:02;16.40;48.20
59881;DHT22;45751;51.380;10.326;2023-04-09T13:59:29;16.60;47.10
59881;DHT22;45751;51.380;10.326;2023-04-09T14:01:57;16.70;46.30
59881;DHT22;45751;51.380;10.326;2023-04-09T14:04:24;16.80;46.20
59881;DHT22;45751;51.380;10.326;2023-04-09T14:06:51;16.90;46.60
59881;DHT22;45751;51.380;10.326;2023-04-09T14:09:18;17.10;46.30
59881;DHT22;45751;51.380;10.326;2023-04-09T14:11:45;17.10;45.10
59881;DHT22;45751;51.380;10.326;2023-04-09T14:14:12;17.20;45.60
59881;DHT22;45751;51.380;10.326;2023-04-09T14:16:39;17.20;45.30
59881;DHT22;45751;51.380;10.326;2023-04-09T14:19:06;17.30;44.80
59881;DHT22;45751;51.380;10.326;2023-04-09T14:21:33;17.40;44.50
59881;DHT22;45751;51.380;10.326;2023-04-09T14:24:00;17.50;44.10
59881;DHT22;45751;51.380;10.326;2023-04-09T14:26:27;17.60;43.80
59881;DHT22;45751;51.380;10.326;2023-04-09T14:28:54;17.60;42.90
59881;DHT22;45751;51.380;10.326;2023-04-09T14:31:21;17.60;43.70
59881;DHT22;45751;51.380;10.326;2023-04-09T14:33:48;17.70;43.70
59881;DHT22;45751;51.380;10.326;2023-04-09T14:36:16;17.80;44.40
59881;DHT22;45751;51.380;10.326;2023-04-09T14:38:43;17.90;43.20
59881;DHT22;45751;51.380;10.326;2023-04-09T14:41:10;17.90;42.70
59881;DHT22;45751;51.380;10.326;2023-04-09T14:43:37;17.90;42.00
59881;DHT22;45751;51.380;10.326;2023-04-09T14:46:05;17.70;40.90
59881;DHT22;45751;51.380;10.326;2023-04-09T14:48:38;17.50;41.30
59881;DHT22;45751;51.380;10.326;2023-04-09T14:51:05;17.40;42.30
59881;DHT22;45751;51.380;10.326;2023-04-09T14:53:32;17.20;42.00
59881;DHT22;45751;51.380;10.326;2023-04-09T14:55:59;17.20;42.60
59881;DHT22;45751;51.380;10.326;2023-04-09T14:58:26;17.20;43.00
59881;DHT22;45751;51.380;10.326;2023-04-09T15:00:52;17.30;42.80
59881;DHT22;45751;51.380;10.326;2023-04-09T15:03:20;17.40;42.90
59881;DHT22;45751;51.380;10.326;2023-04-09T15:05:47;17.60;43.90
59881;DHT22;45751;51.380;10.326;2023-04-09T15:08:14;17.50;42.50
59881;DHT22;45751;51.380;10.326;2023-04-09T15:10:41;17.60;42.30
59881;DHT22;45751;51.380;10.326;2023-04-09T15:13:08;17.70;41.90
59881;DHT22;45751;51.380;10.326;2023-04-09T15:15:35;17.70;41.20
59881;DHT22;45751;51.380;10.326;2023-04-09T15:18:02;17.70;41.50
59881;DHT22;45751;51.380;10.326;2023-04-09T15:20:36;17.80;41.40
59881;DHT22;45751;51.380;10.326;2023-04-09T15:23:02;17.90;41.20
59881;DHT22;45751;51.380;10.326;2023-04-09T15:25:29;18.00;40.80
59881;DHT22;45751;51.380;10.326;2023-04-09T15:27:57;18.10;40.60
59881;DHT22;45751;51.380;10.326;2023-04-09T15:30:24;18.10;40.40
59881;DHT22;45751;51.380;10.326;2023-04-09T15:32:52;18.20;40.10
59881;DHT22;45751;51.380;10.326;2023-04-09T15:35:19;18.20;39.60
59881;DHT22;45751;51.380;10.326;2023-04-09T15:37:51;18.20;39.20
59881;DHT22;45751;51.380;10.326;2023-04-09T15:40:18;18.30;39.80
59881;DHT22;45751;51.380;10.326;2023-04-09T15:42:46;18.40;39.80
59881;DHT22;45751;51.380;10.326;2023-04-09T15:45:16;18.40;39.70
59881;DHT22;45751;51.380;10.326;2023-04-09T15:47:43;18.50;39.70
59881;DHT22;45751;51.380;10.326;2023-04-09T15:50:12;18.60;39.30
59881;DHT22;45751;51.380;10.326;2023-04-09T15:52:39;18.70;39.20
59881;DHT22;45751;51.380;10.326;2023-04-09T15:55:06;18.80;38.60